Time;durP1;ratioP1;P1;durP2;ratioP2;P2;SDS_P1;SDS_P2;PMS_P1;PMS_P2;Temp;Humidity;BMP_temperature;BMP_pressure;BME280_temperature;BME280_humidity;BME280_pressure;Samples;Min_cycle;Max_cycle;Signal;HPM_P1;HPM_P2
2023/05/14 00:01:27;;;;;;;;;;;20.10;56.70;;;;;;6297566;28;19909;-65
2023/05/14 00:04:27;;;;;;;;;;;20.10;56.70;;;;;;6279391;28;20533;-65
2023/05/14 00:07:29;;;;;;;;;;;20.10;56.80;;;;;;6297906;28;21411;-66
2023/05/14 00:10:30;;;;;;;;;;;20.10;56.80;;;;;;6279848;28;19913;-65
2023/05/14 00:13:30;;;;;;;;;;;20.10;56.70;;;;;;6279314;28;20471;-65
2023/05/14 00:16:31;;;;;;;;;;;20.10;56.80;;;;;;6279239;28;20015;-65
2023/05/14 00:19:31;;;;;;;;;;;20.10;56.70;;;;;;6279414;28;20006;-65
2023/05/14 00:22:33;;;;;;;;;;;20.10;56.80;;;;;;6297174;28;19908;-65
2023/05/14 00:25:33;;;;;;;;;;;20.10;56.80;;;;;;6296834;28;20369;-64
2023/05/14 00:28:34;;;;;;;;;;;20.10;56.70;;;;;;6297086;28;19908;-64
2023/05/14 00:31:35;;;;;;;;;;;20.10;56.70;;;;;;6279211;28;19916;-64
2023/05/14 00:34:35;;;;;;;;;;;20.10;56.70;;;;;;6278931;28;19915;-65
2023/05/14 00:37:36;;;;;;;;;;;20.10;56.80;;;;;;6296620;28;19916;-65
2023/05/14 00:40:36;;;;;;;;;;;20.10;56.80;;;;;;6296776;28;20575;-65
2023/05/14 00:43:37;;;;;;;;;;;20.10;56.80;;;;;;6278886;28;19915;-65
2023/05/14 00:46:37;;;;;;;;;;;20.10;56.80;;;;;;6296127;28;19973;-65
2023/05/14 00:49:39;;;;;;;;;;;20.10;56.80;;;;;;6295879;28;19958;-65
2023/05/14 00:52:40;;;;;;;;;;;20.10;56.80;;;;;;6296282;28;19923;-65
2023/05/14 00:55:41;;;;;;;;;;;20.10;56.80;;;;;;6296571;28;19908;-65
2023/05/14 00:58:41;;;;;;;;;;;20.10;56.80;;;;;;6296298;28;20685;-65
2023/05/14 01:01:42;;;;;;;;;;;20.10;56.80;;;;;;6270190;28;19916;-65
2023/05/14 01:04:43;;;;;;;;;;;20.10;56.80;;;;;;6271736;28;19908;-65
2023/05/14 01:08:16;;;;;;;;;;;20.10;56.80;;;;;;6269946;28;20377;-65
2023/05/14 01:11:18;;;;;;;;;;;20.10;56.80;;;;;;6233483;28;19908;-65
2023/05/14 01:14:37;;;;;;;;;;;20.10;56.80;;;;;;6296064;28;20024;-65
2023/05/14 01:17:44;;;;;;;;;;;20.10;56.80;;;;;;6295759;28;19954;-64
2023/05/14 01:20:45;;;;;;;;;;;20.10;56.80;;;;;;6296135;28;19975;-65
2023/05/14 01:23:45;;;;;;;;;;;20.10;56.80;;;;;;6294945;28;19962;-65
2023/05/14 01:26:46;;;;;;;;;;;20.10;56.80;;;;;;6277666;28;19927;-65
2023/05/14 01:29:57;;;;;;;;;;;20.10;56.80;;;;;;6295611;28;19962;-65
2023/05/14 01:33:01;;;;;;;;;;;20.10;56.80;;;;;;6277786;28;19915;-65
2023/05/14 01:36:02;;;;;;;;;;;20.10;56.80;;;;;;6295328;28;19915;-65
2023/05/14 01:39:03;;;;;;;;;;;20.10;56.80;;;;;;6295465;28;19909;-64
2023/05/14 01:42:05;;;;;;;;;;;20.10;56.80;;;;;;6295304;28;19919;-65
2023/05/14 01:45:06;;;;;;;;;;;20.10;56.80;;;;;;6294881;28;19915;-65
2023/05/14 01:48:07;;;;;;;;;;;20.10;56.80;;;;;;6295015;28;19912;-65
2023/05/14 01:51:07;;;;;;;;;;;20.10;56.80;;;;;;6295278;28;19909;-65
2023/05/14 01:54:08;;;;;;;;;;;20.10;56.80;;;;;;6277056;28;19922;-65
2023/05/14 01:57:08;;;;;;;;;;;20.10;56.80;;;;;;6294705;28;19908;-65
2023/05/14 02:00:09;;;;;;;;;;;20.10;56.80;;;;;;6294751;28;19909;-65
2023/05/14 02:03:10;;;;;;;;;;;20.10;56.80;;;;;;6295140;28;19913;-65
2023/05/14 02:06:10;;;;;;;;;;;20.10;56.80;;;;;;6294858;28;20359;-65
2023/05/14 02:09:11;;;;;;;;;;;20.10;56.80;;;;;;6294848;28;19909;-64
2023/05/14 02:12:13;;;;;;;;;;;20.10;56.80;;;;;;6294482;28;19912;-64
2023/05/14 02:15:14;;;;;;;;;;;20.10;56.80;;;;;;6295036;28;19909;-65
2023/05/14 02:18:15;;;;;;;;;;;20.10;56.80;;;;;;6293928;28;19909;-65
2023/05/14 02:21:15;;;;;;;;;;;20.10;56.80;;;;;;6294507;28;19916;-64
2023/05/14 02:24:16;;;;;;;;;;;20.10;56.80;;;;;;6293797;28;19912;-65
2023/05/14 02:27:17;;;;;;;;;;;20.10;56.80;;;;;;6293754;28;19918;-65
2023/05/14 02:30:18;;;;;;;;;;;20.10;56.80;;;;;;6294121;28;20046;-65
2023/05/14 02:33:18;;;;;;;;;;;20.10;56.80;;;;;;6294229;28;19908;-65
2023/05/14 02:36:19;;;;;;;;;;;20.10;56.80;;;;;;6294015;28;19908;-66
2023/05/14 02:39:20;;;;;;;;;;;20.10;56.80;;;;;;6293920;28;19992;-64
2023/05/14 02:42:20;;;;;;;;;;;20.10;56.80;;;;;;6275998;28;19983;-65
2023/05/14 02:45:21;;;;;;;;;;;20.10;56.80;;;;;;6293616;28;19928;-65
2023/05/14 02:48:21;;;;;;;;;;;20.10;56.80;;;;;;6275758;28;19995;-65
2023/05/14 02:51:22;;;;;;;;;;;20.10;56.80;;;;;;6293614;28;20046;-65
2023/05/14 02:54:22;;;;;;;;;;;20.10;56.90;;;;;;6276073;28;19908;-64
2023/05/14 02:57:23;;;;;;;;;;;20.10;56.80;;;;;;6293685;28;20285;-64
2023/05/14 03:00:24;;;;;;;;;;;20.10;56.80;;;;;;6293318;28;19920;-64
2023/05/14 03:03:24;;;;;;;;;;;20.10;56.80;;;;;;6293586;28;20006;-64
2023/05/14 03:06:25;;;;;;;;;;;20.10;56.80;;;;;;6293820;28;19917;-65
2023/05/14 03:09:25;;;;;;;;;;;20.10;56.80;;;;;;6293350;28;20246;-65
2023/05/14 03:12:26;;;;;;;;;;;20.10;56.80;;;;;;6297527;28;19909;-65
2023/05/14 03:15:26;;;;;;;;;;;20.10;56.80;;;;;;6301763;28;19909;-66
2023/05/14 03:18:29;;;;;;;;;;;20.10;56.80;;;;;;6301611;28;19930;-65
2023/05/14 03:21:30;;;;;;;;;;;20.10;56.80;;;;;;6283593;28;19909;-64
2023/05/14 03:24:31;;;;;;;;;;;20.10;56.80;;;;;;6301579;28;20023;-65
2023/05/14 03:27:32;;;;;;;;;;;20.10;56.80;;;;;;6301928;28;19969;-65
2023/05/14 03:30:33;;;;;;;;;;;20.10;56.80;;;;;;6275423;28;19913;-65
2023/05/14 03:33:33;;;;;;;;;;;20.10;56.80;;;;;;6279991;28;20392;-65
2023/05/14 03:36:35;;;;;;;;;;;20.10;56.80;;;;;;6283669;28;19952;-65
2023/05/14 03:39:35;;;;;;;;;;;20.10;56.80;;;;;;6301344;28;19913;-65
2023/05/14 03:42:36;;;;;;;;;;;20.10;56.80;;;;;;6301590;28;20377;-65
2023/05/14 03:45:36;;;;;;;;;;;20.10;56.80;;;;;;6301145;28;19920;-65
2023/05/14 03:48:37;;;;;;;;;;;20.10;56.80;;;;;;6301624;28;19908;-65
2023/05/14 03:51:38;;;;;;;;;;;20.10;56.90;;;;;;6283126;28;19963;-65
2023/05/14 03:54:40;;;;;;;;;;;20.10;56.90;;;;;;6301509;28;19912;-65
2023/05/14 03:57:40;;;;;;;;;;;20.10;56.90;;;;;;6301222;28;20401;-65
2023/05/14 04:00:41;;;;;;;;;;;20.10;56.80;;;;;;6301235;28;19934;-65
2023/05/14 04:03:42;;;;;;;;;;;20.10;56.90;;;;;;6283231;28;19912;-65
2023/05/14 04:06:43;;;;;;;;;;;20.10;57.50;;;;;;6301451;28;20000;-65
2023/05/14 04:09:43;;;;;;;;;;;20.10;56.80;;;;;;6301092;28;19908;-65
2023/05/14 04:12:44;;;;;;;;;;;20.10;56.90;;;;;;6301210;28;19908;-66
2023/05/14 04:15:44;;;;;;;;;;;20.10;56.80;;;;;;6300983;28;19915;-64
2023/05/14 04:18:45;;;;;;;;;;;20.10;56.80;;;;;;6301288;28;19919;-65
2023/05/14 04:21:45;;;;;;;;;;;20.10;56.80;;;;;;6301334;28;20381;-65
2023/05/14 04:24:46;;;;;;;;;;;20.10;56.90;;;;;;6296772;28;19965;-65
2023/05/14 04:27:46;;;;;;;;;;;20.10;56.80;;;;;;6297262;28;19913;-65
2023/05/14 04:30:47;;;;;;;;;;;20.10;56.80;;;;;;6297012;28;19909;-65
2023/05/14 04:33:48;;;;;;;;;;;20.10;56.80;;;;;;6296790;28;19908;-65
2023/05/14 04:36:48;;;;;;;;;;;20.10;56.90;;;;;;6297243;28;19936;-65
2023/05/14 04:39:49;;;;;;;;;;;20.10;56.80;;;;;;6296690;28;19909;-65
2023/05/14 04:42:50;;;;;;;;;;;20.10;56.90;;;;;;6296686;28;20075;-64
2023/05/14 04:45:51;;;;;;;;;;;20.10;56.90;;;;;;6296164;28;19921;-65
2023/05/14 04:48:52;;;;;;;;;;;20.10;56.90;;;;;;6296775;28;19916;-64
2023/05/14 04:51:52;;;;;;;;;;;20.10;56.90;;;;;;6296458;28;19936;-65
2023/05/14 04:54:53;;;;;;;;;;;20.10;56.90;;;;;;6296342;28;19908;-65
2023/05/14 04:57:53;;;;;;;;;;;20.10;56.90;;;;;;6296326;28;19908;-65
2023/05/14 05:00:54;;;;;;;;;;;20.10;56.80;;;;;;6295625;28;20034;-64
2023/05/14 05:03:56;;;;;;;;;;;20.10;56.80;;;;;;6296198;28;19908;-65
2023/05/14 05:06:57;;;;;;;;;;;20.10;56.90;;;;;;6278311;28;20006;-65
2023/05/14 05:09:57;;;;;;;;;;;20.10;57.00;;;;;;6296101;28;19931;-65
2023/05/14 05:12:58;;;;;;;;;;;20.10;56.90;;;;;;6295991;28;19944;-64
2023/05/14 05:15:58;;;;;;;;;;;20.10;56.90;;;;;;6295812;28;19919;-65
2023/05/14 05:18:59;;;;;;;;;;;20.10;56.80;;;;;;6296504;28;19908;-64
2023/05/14 05:22:00;;;;;;;;;;;20.10;56.90;;;;;;6296312;28;19912;-65
2023/05/14 05:25:04;;;;;;;;;;;20.10;56.90;;;;;;6295612;28;19916;-65
2023/05/14 05:28:04;;;;;;;;;;;20.10;56.90;;;;;;6295617;28;19917;-65
2023/05/14 05:31:05;;;;;;;;;;;20.10;56.80;;;;;;6277639;28;20281;-65
2023/05/14 05:34:06;;;;;;;;;;;20.10;56.90;;;;;;6295382;28;19909;-65
2023/05/14 05:37:08;;;;;;;;;;;20.10;56.90;;;;;;6277180;28;20266;-65
2023/05/14 05:40:09;;;;;;;;;;;20.10;56.80;;;;;;6295634;28;19985;-65
2023/05/14 05:43:09;;;;;;;;;;;20.10;56.90;;;;;;6277281;28;19908;-66
2023/05/14 05:46:10;;;;;;;;;;;20.10;56.90;;;;;;6294942;28;19932;-65
2023/05/14 05:49:11;;;;;;;;;;;20.10;56.90;;;;;;6295028;28;19966;-65
2023/05/14 05:52:11;;;;;;;;;;;20.10;56.90;;;;;;6277254;28;19908;-66
2023/05/14 05:55:12;;;;;;;;;;;20.10;56.90;;;;;;6294802;28;19915;-65
2023/05/14 05:58:16;;;;;;;;;;;20.10;56.90;;;;;;6295125;28;19908;-65
2023/05/14 06:01:16;;;;;;;;;;;20.10;56.90;;;;;;6294625;28;19908;-65
2023/05/14 06:04:17;;;;;;;;;;;20.10;56.90;;;;;;6294535;28;20478;-64
2023/05/14 06:07:17;;;;;;;;;;;20.10;56.90;;;;;;6294430;28;19955;-65
2023/05/14 06:10:18;;;;;;;;;;;20.10;57.60;;;;;;6294646;28;19986;-64
2023/05/14 06:13:18;;;;;;;;;;;20.10;56.90;;;;;;6294731;28;19951;-65
2023/05/14 06:16:19;;;;;;;;;;;20.10;56.90;;;;;;6294554;28;19916;-65
2023/05/14 06:19:20;;;;;;;;;;;20.10;56.80;;;;;;6294224;28;19920;-65
2023/05/14 06:22:21;;;;;;;;;;;20.10;56.90;;;;;;6276630;28;19956;-65
2023/05/14 06:25:21;;;;;;;;;;;20.10;56.90;;;;;;6293890;28;20345;-65
2023/05/14 06:28:22;;;;;;;;;;;20.10;56.90;;;;;;6294312;28;20369;-65
2023/05/14 06:31:22;;;;;;;;;;;20.10;56.90;;;;;;6293753;28;19912;-65
2023/05/14 06:34:23;;;;;;;;;;;20.10;56.90;;;;;;6294442;28;19912;-65
2023/05/14 06:37:24;;;;;;;;;;;20.10;56.90;;;;;;6293752;28;19913;-65
2023/05/14 06:40:25;;;;;;;;;;;20.10;56.90;;;;;;6294427;28;19908;-65
2023/05/14 06:43:25;;;;;;;;;;;20.10;56.90;;;;;;6294063;28;19957;-65
2023/05/14 06:46:26;;;;;;;;;;;20.10;56.90;;;;;;6262754;28;20432;-64
2023/05/14 06:49:26;;;;;;;;;;;20.10;56.90;;;;;;6268928;28;20365;-65
2023/05/14 06:52:27;;;;;;;;;;;20.10;56.90;;;;;;6269579;28;20366;-65
2023/05/14 06:55:28;;;;;;;;;;;20.10;56.90;;;;;;6250965;28;19909;-65
2023/05/14 06:58:28;;;;;;;;;;;20.10;56.90;;;;;;6250841;28;20653;-65
2023/05/14 07:01:29;;;;;;;;;;;20.10;56.90;;;;;;6268638;28;19909;-65
2023/05/14 07:04:29;;;;;;;;;;;20.10;56.90;;;;;;6269095;28;19916;-65
2023/05/14 07:07:30;;;;;;;;;;;20.10;56.90;;;;;;6268422;28;19924;-64
2023/05/14 07:10:31;;;;;;;;;;;20.10;56.90;;;;;;6269125;28;19959;-65
2023/05/14 07:13:32;;;;;;;;;;;20.10;56.90;;;;;;6268743;28;19909;-65
2023/05/14 07:16:32;;;;;;;;;;;20.10;56.90;;;;;;6268827;28;19909;-65
2023/05/14 07:19:33;;;;;;;;;;;20.10;56.90;;;;;;6268830;28;20577;-69
2023/05/14 07:22:34;;;;;;;;;;;20.10;56.90;;;;;;6259653;28;20426;-69
2023/05/14 07:25:34;;;;;;;;;;;20.10;57.00;;;;;;6265384;28;19913;-69
2023/05/14 07:28:35;;;;;;;;;;;20.10;56.80;;;;;;6261728;28;20027;-69
2023/05/14 07:31:35;;;;;;;;;;;20.20;56.90;;;;;;6267627;28;19909;-69
2023/05/14 07:34:36;;;;;;;;;;;20.20;56.90;;;;;;6267835;28;19912;-69
2023/05/14 07:37:36;;;;;;;;;;;20.20;57.00;;;;;;6254198;28;19935;-70
2023/05/14 07:40:37;;;;;;;;;;;20.10;56.80;;;;;;6243177;28;19909;-69
2023/05/14 07:43:39;;;;;;;;;;;20.20;56.90;;;;;;6243483;28;20342;-69
2023/05/14 07:46:39;;;;;;;;;;;20.20;56.90;;;;;;6257148;28;20042;-69
2023/05/14 07:49:40;;;;;;;;;;;20.10;56.80;;;;;;6274736;28;19958;-69
2023/05/14 07:52:42;;;;;;;;;;;20.10;56.90;;;;;;6266867;28;19920;-69
2023/05/14 07:55:43;;;;;;;;;;;20.20;56.90;;;;;;6250325;28;20004;-69
2023/05/14 07:58:44;;;;;;;;;;;20.20;56.90;;;;;;6274820;28;20277;-68
2023/05/14 08:01:44;;;;;;;;;;;20.10;56.90;;;;;;6304338;28;19908;-67
2023/05/14 08:04:45;;;;;;;;;;;20.10;56.90;;;;;;6297500;28;19909;-66
2023/05/14 08:07:46;;;;;;;;;;;20.10;56.80;;;;;;6286432;28;20004;-67
2023/05/14 08:10:46;;;;;;;;;;;20.10;56.90;;;;;;6322419;28;19908;-67
2023/05/14 08:13:47;;;;;;;;;;;20.10;56.80;;;;;;6306948;28;20280;-67
2023/05/14 08:16:48;;;;;;;;;;;20.10;56.80;;;;;;6296438;28;19908;-67
2023/05/14 08:19:49;;;;;;;;;;;20.10;56.90;;;;;;6297177;28;20353;-67
2023/05/14 08:22:50;;;;;;;;;;;20.20;56.90;;;;;;6296647;28;19913;-67
2023/05/14 08:25:50;;;;;;;;;;;20.10;56.90;;;;;;6296776;28;19969;-67
2023/05/14 08:28:53;;;;;;;;;;;20.10;56.90;;;;;;6296089;28;19975;-67
2023/05/14 08:31:53;;;;;;;;;;;20.10;56.80;;;;;;6278775;28;20372;-67
2023/05/14 08:34:54;;;;;;;;;;;20.10;56.90;;;;;;6296796;28;19909;-68
2023/05/14 08:37:55;;;;;;;;;;;20.10;56.80;;;;;;6296330;28;19909;-67
2023/05/14 08:40:57;;;;;;;;;;;20.10;56.80;;;;;;6296485;28;19915;-67
2023/05/14 08:44:33;;;;;;;;;;;20.10;56.90;;;;;;6296640;28;19948;-67
2023/05/14 08:47:34;;;;;;;;;;;20.10;56.90;;;;;;6196259;28;19922;-67
2023/05/14 08:50:35;;;;;;;;;;;20.10;56.90;;;;;;6295007;28;19954;-66
2023/05/14 08:53:37;;;;;;;;;;;20.10;56.90;;;;;;6296280;28;19915;-67
2023/05/14 08:56:39;;;;;;;;;;;20.10;56.90;;;;;;6277816;28;20405;-67
2023/05/14 08:59:40;;;;;;;;;;;20.10;56.80;;;;;;6296018;28;19915;-68
2023/05/14 09:02:41;;;;;;;;;;;20.10;56.90;;;;;;6274002;28;19912;-67
2023/05/14 09:05:42;;;;;;;;;;;20.20;57.00;;;;;;6294599;28;19912;-67
2023/05/14 09:08:43;;;;;;;;;;;20.10;56.90;;;;;;6294222;28;19912;-67
2023/05/14 09:11:47;;;;;;;;;;;20.10;56.90;;;;;;6291991;28;19915;-65
2023/05/14 09:14:49;;;;;;;;;;;20.10;56.90;;;;;;6303609;28;20335;-67
2023/05/14 09:17:49;;;;;;;;;;;20.10;56.90;;;;;;6277090;28;19915;-67
2023/05/14 09:20:51;;;;;;;;;;;20.10;56.90;;;;;;6277004;28;19912;-67
2023/05/14 09:23:54;;;;;;;;;;;20.10;56.90;;;;;;6278228;28;19915;-67
2023/05/14 09:26:55;;;;;;;;;;;20.10;56.90;;;;;;6296663;28;19912;-67
2023/05/14 09:30:03;;;;;;;;;;;20.20;56.90;;;;;;6281371;28;19915;-68
2023/05/14 09:33:03;;;;;;;;;;;20.20;56.70;;;;;;6295456;28;19908;-67
2023/05/14 09:36:04;;;;;;;;;;;20.30;56.60;;;;;;6280438;28;19967;-67
2023/05/14 09:39:05;;;;;;;;;;;20.30;56.50;;;;;;6294531;28;19909;-67
2023/05/14 09:42:06;;;;;;;;;;;20.30;56.50;;;;;;6293639;28;19995;-68
2023/05/14 09:45:07;;;;;;;;;;;20.30;56.40;;;;;;6290076;28;19909;-68
2023/05/14 09:48:08;;;;;;;;;;;20.30;56.40;;;;;;6294293;28;19912;-67
2023/05/14 09:51:08;;;;;;;;;;;20.30;56.50;;;;;;6276718;28;19916;-67
2023/05/14 09:54:09;;;;;;;;;;;20.30;56.50;;;;;;6294482;28;19909;-68
2023/05/14 09:57:10;;;;;;;;;;;20.40;56.50;;;;;;6294353;28;19908;-67
2023/05/14 10:00:11;;;;;;;;;;;20.40;56.50;;;;;;6294230;28;19913;-67
2023/05/14 10:03:13;;;;;;;;;;;20.40;56.50;;;;;;6294502;28;19939;-68
2023/05/14 10:06:15;;;;;;;;;;;20.40;56.50;;;;;;6294111;28;19952;-67
2023/05/14 10:09:17;;;;;;;;;;;20.40;56.60;;;;;;6275873;28;19908;-66
2023/05/14 10:12:21;;;;;;;;;;;20.50;57.20;;;;;;6285075;28;19909;-67
2023/05/14 10:15:25;;;;;;;;;;;20.50;56.40;;;;;;6291270;28;19912;-67
2023/05/14 10:18:27;;;;;;;;;;;20.50;56.60;;;;;;6294630;28;20273;-67
2023/05/14 10:21:30;;;;;;;;;;;20.40;56.60;;;;;;6292919;28;20323;-67
2023/05/14 10:24:31;;;;;;;;;;;20.40;56.70;;;;;;6293892;28;19917;-67
2023/05/14 10:27:32;;;;;;;;;;;20.40;56.80;;;;;;6293539;28;19912;-67
2023/05/14 10:30:32;;;;;;;;;;;20.30;56.80;;;;;;6276152;28;19908;-68
2023/05/14 10:33:45;;;;;;;;;;;20.30;56.80;;;;;;6275869;28;20518;-67
2023/05/14 10:36:45;;;;;;;;;;;20.30;56.80;;;;;;6275809;28;19954;-67
2023/05/14 10:39:56;;;;;;;;;;;20.30;56.80;;;;;;6293978;28;19960;-68
2023/05/14 10:42:58;;;;;;;;;;;20.30;56.90;;;;;;6294243;28;19908;-68
2023/05/14 10:45:59;;;;;;;;;;;20.30;56.90;;;;;;6268542;28;19920;-67
2023/05/14 10:49:00;;;;;;;;;;;20.30;56.90;;;;;;6251234;28;19908;-68
2023/05/14 10:52:01;;;;;;;;;;;20.30;56.90;;;;;;6288366;28;19913;-68
2023/05/14 10:55:02;;;;;;;;;;;20.30;56.90;;;;;;6293872;28;19943;-68
2023/05/14 10:58:04;;;;;;;;;;;20.30;57.00;;;;;;6276056;28;19908;-65
2023/05/14 11:01:05;;;;;;;;;;;20.30;56.90;;;;;;6275767;28;19916;-67
2023/05/14 11:04:08;;;;;;;;;;;20.30;56.90;;;;;;6293201;28;21527;-67
2023/05/14 11:07:09;;;;;;;;;;;20.30;56.90;;;;;;6274823;28;19912;-66
2023/05/14 11:10:12;;;;;;;;;;;20.30;56.90;;;;;;6275689;28;19909;-66
2023/05/14 11:13:15;;;;;;;;;;;20.30;57.00;;;;;;6293442;28;19915;-65
2023/05/14 11:16:18;;;;;;;;;;;20.20;56.90;;;;;;6275371;28;19908;-66
2023/05/14 11:19:20;;;;;;;;;;;20.30;57.00;;;;;;6275291;28;19987;-66
2023/05/14 11:22:21;;;;;;;;;;;20.30;57.00;;;;;;6293590;28;19935;-66
2023/05/14 11:25:24;;;;;;;;;;;20.20;56.90;;;;;;6274903;28;20358;-66
2023/05/14 11:28:25;;;;;;;;;;;20.20;56.90;;;;;;6292931;28;19952;-66
2023/05/14 11:31:26;;;;;;;;;;;20.30;57.00;;;;;;6275084;28;19908;-66
2023/05/14 11:34:27;;;;;;;;;;;20.20;56.90;;;;;;6278619;28;20335;-66
2023/05/14 11:37:29;;;;;;;;;;;20.30;57.00;;;;;;6297256;28;19916;-65
2023/05/14 11:40:30;;;;;;;;;;;20.30;57.00;;;;;;6298038;28;19904;-66
2023/05/14 11:43:35;;;;;;;;;;;20.30;57.00;;;;;;6282210;28;19912;-66
2023/05/14 11:46:35;;;;;;;;;;;20.30;57.00;;;;;;6297561;28;19920;-65
2023/05/14 11:49:36;;;;;;;;;;;20.20;56.90;;;;;;6297515;28;19916;-66
2023/05/14 11:52:39;;;;;;;;;;;20.30;57.00;;;;;;6298105;28;19988;-66
2023/05/14 11:55:39;;;;;;;;;;;20.20;57.00;;;;;;6297878;28;19912;-66
2023/05/14 11:58:40;;;;;;;;;;;20.20;57.00;;;;;;6297195;28;19959;-66
2023/05/14 12:01:43;;;;;;;;;;;20.20;57.00;;;;;;6297707;28;19919;-66
2023/05/14 12:04:48;;;;;;;;;;;20.20;57.00;;;;;;6297724;28;20486;-66
2023/05/14 12:07:48;;;;;;;;;;;20.30;57.00;;;;;;6295392;28;20377;-66
2023/05/14 12:10:49;;;;;;;;;;;20.30;57.00;;;;;;6279602;28;19915;-66
2023/05/14 12:13:51;;;;;;;;;;;20.20;57.00;;;;;;6297297;28;20007;-66
2023/05/14 12:16:52;;;;;;;;;;;20.20;56.90;;;;;;6297119;28;19913;-66
2023/05/14 12:19:52;;;;;;;;;;;20.20;57.00;;;;;;6297539;28;19952;-66
2023/05/14 12:22:53;;;;;;;;;;;20.20;57.00;;;;;;6296900;28;19999;-66
2023/05/14 12:25:53;;;;;;;;;;;20.20;57.00;;;;;;6279165;28;19935;-66
2023/05/14 12:29:01;;;;;;;;;;;20.20;57.00;;;;;;6278719;28;19999;-66
2023/05/14 12:32:07;;;;;;;;;;;20.20;57.00;;;;;;6296870;28;19908;-65
2023/05/14 12:35:08;;;;;;;;;;;20.20;57.00;;;;;;6296800;28;19909;-64
2023/05/14 12:38:08;;;;;;;;;;;20.20;57.00;;;;;;6296392;28;20281;-65
2023/05/14 12:41:09;;;;;;;;;;;20.20;57.00;;;;;;6296432;28;19968;-66
2023/05/14 12:44:10;;;;;;;;;;;20.20;57.00;;;;;;6295574;28;20010;-65
2023/05/14 12:47:10;;;;;;;;;;;20.20;57.00;;;;;;6277639;28;20428;-66
2023/05/14 12:50:11;;;;;;;;;;;20.20;57.00;;;;;;6296638;28;19916;-65
2023/05/14 12:53:15;;;;;;;;;;;20.20;57.00;;;;;;6278608;28;20310;-66
2023/05/14 12:56:15;;;;;;;;;;;20.20;57.00;;;;;;6296254;28;19917;-66
2023/05/14 12:59:16;;;;;;;;;;;20.20;57.00;;;;;;6295967;28;20358;-66
2023/05/14 13:02:17;;;;;;;;;;;20.20;57.00;;;;;;6296301;28;19909;-66
2023/05/14 13:05:18;;;;;;;;;;;20.20;57.00;;;;;;6321161;28;19934;-66
2023/05/14 13:08:20;;;;;;;;;;;20.20;57.00;;;;;;6302518;28;19947;-66
2023/05/14 13:11:21;;;;;;;;;;;20.20;57.00;;;;;;6303242;28;19912;-66
2023/05/14 13:14:22;;;;;;;;;;;20.20;57.00;;;;;;6310526;28;19959;-65
2023/05/14 13:17:22;;;;;;;;;;;20.20;57.00;;;;;;6277522;28;19909;-65
2023/05/14 13:20:24;;;;;;;;;;;20.20;57.00;;;;;;6295634;28;19913;-66
2023/05/14 13:23:25;;;;;;;;;;;20.20;57.00;;;;;;6295949;28;20340;-66
2023/05/14 13:26:27;;;;;;;;;;;20.20;57.00;;;;;;6295543;28;19966;-66
2023/05/14 13:29:30;;;;;;;;;;;20.20;57.00;;;;;;6295245;28;19962;-66
2023/05/14 13:32:31;;;;;;;;;;;20.20;57.10;;;;;;6295565;28;20007;-66
2023/05/14 13:35:31;;;;;;;;;;;20.20;57.00;;;;;;6295710;28;19908;-66
2023/05/14 13:38:32;;;;;;;;;;;20.20;57.00;;;;;;6294966;28;19915;-66
2023/05/14 13:41:36;;;;;;;;;;;20.20;57.00;;;;;;6295434;28;20273;-66
2023/05/14 13:44:37;;;;;;;;;;;20.20;57.00;;;;;;6269205;28;19909;-66
2023/05/14 13:47:37;;;;;;;;;;;20.20;57.00;;;;;;6269675;28;19921;-66
2023/05/14 13:50:38;;;;;;;;;;;20.20;57.00;;;;;;6268514;28;19908;-67
2023/05/14 13:53:38;;;;;;;;;;;20.20;57.00;;;;;;6273851;28;19916;-67
2023/05/14 13:56:39;;;;;;;;;;;20.20;57.00;;;;;;6293683;28;19909;-67
2023/05/14 13:59:40;;;;;;;;;;;20.20;57.00;;;;;;6305302;28;19916;-68
2023/05/14 14:02:41;;;;;;;;;;;20.20;57.00;;;;;;6301299;28;19912;-68
2023/05/14 14:05:41;;;;;;;;;;;20.30;57.00;;;;;;6301228;28;19909;-66
2023/05/14 14:08:42;;;;;;;;;;;20.30;57.10;;;;;;6286132;28;19916;-67
2023/05/14 14:11:42;;;;;;;;;;;20.30;57.10;;;;;;6283715;28;19908;-67
2023/05/14 14:14:43;;;;;;;;;;;20.30;57.10;;;;;;6266607;28;19916;-66
2023/05/14 14:17:44;;;;;;;;;;;20.20;57.10;;;;;;6254425;28;19987;-67
2023/05/14 14:20:44;;;;;;;;;;;20.20;57.00;;;;;;6253904;28;19943;-67
2023/05/14 14:23:45;;;;;;;;;;;20.20;57.10;;;;;;6293759;28;20286;-66
2023/05/14 14:26:46;;;;;;;;;;;20.20;57.10;;;;;;6279873;28;19917;-66
2023/05/14 14:29:46;;;;;;;;;;;20.20;57.10;;;;;;6276816;28;19952;-67
2023/05/14 14:32:47;;;;;;;;;;;20.20;57.00;;;;;;6289450;28;19974;-67
2023/05/14 14:35:48;;;;;;;;;;;20.30;57.10;;;;;;6293755;28;19912;-67
2023/05/14 14:38:49;;;;;;;;;;;20.20;57.10;;;;;;6274936;28;19962;-67
2023/05/14 14:41:50;;;;;;;;;;;20.20;57.10;;;;;;6293742;28;19908;-67
2023/05/14 14:44:50;;;;;;;;;;;20.30;57.20;;;;;;6293429;28;20007;-67
2023/05/14 14:47:51;;;;;;;;;;;20.20;57.10;;;;;;6292872;28;20030;-67
2023/05/14 14:50:52;;;;;;;;;;;20.20;57.10;;;;;;6282025;28;19909;-66
2023/05/14 14:53:53;;;;;;;;;;;20.20;57.10;;;;;;6293392;28;19948;-67
2023/05/14 14:56:53;;;;;;;;;;;20.20;57.20;;;;;;6276813;28;19916;-67
2023/05/14 14:59:54;;;;;;;;;;;20.20;57.10;;;;;;6292786;28;19909;-69
2023/05/14 15:02:54;;;;;;;;;;;20.20;57.10;;;;;;6293358;28;19959;-68
2023/05/14 15:05:55;;;;;;;;;;;20.20;57.10;;;;;;6293377;28;19919;-68
2023/05/14 15:08:55;;;;;;;;;;;20.30;57.10;;;;;;6274275;28;19908;-67
2023/05/14 15:11:56;;;;;;;;;;;20.20;57.10;;;;;;6293508;28;19916;-67
2023/05/14 15:14:57;;;;;;;;;;;20.20;57.10;;;;;;6293645;28;19940;-66
2023/05/14 15:17:57;;;;;;;;;;;20.20;57.10;;;;;;6275375;28;19909;-67
2023/05/14 15:20:58;;;;;;;;;;;20.20;57.10;;;;;;6267255;28;20007;-67
2023/05/14 15:23:58;;;;;;;;;;;20.20;57.10;;;;;;6268382;28;19912;-67
2023/05/14 15:26:59;;;;;;;;;;;20.20;57.10;;;;;;6268305;28;19913;-67
2023/05/14 15:30:00;;;;;;;;;;;20.20;57.10;;;;;;6268414;28;19908;-67
2023/05/14 15:33:00;;;;;;;;;;;20.20;57.20;;;;;;6268392;28;19952;-68
2023/05/14 15:36:01;;;;;;;;;;;20.20;57.10;;;;;;6267410;28;19939;-67
2023/05/14 15:39:01;;;;;;;;;;;20.20;57.20;;;;;;6268047;28;20027;-68
2023/05/14 15:42:03;;;;;;;;;;;20.20;57.20;;;;;;6268122;28;19955;-70
2023/05/14 15:45:04;;;;;;;;;;;20.20;57.20;;;;;;6250295;28;20438;-70
2023/05/14 15:48:04;;;;;;;;;;;20.20;57.20;;;;;;6267831;28;19913;-70
2023/05/14 15:51:06;;;;;;;;;;;20.20;57.20;;;;;;6286015;22;19925;-70
2023/05/14 15:54:07;;;;;;;;;;;20.20;57.20;;;;;;6243461;28;19944;-71
2023/05/14 15:57:07;;;;;;;;;;;20.20;57.20;;;;;;6256783;28;19915;-71
2023/05/14 16:00:11;;;;;;;;;;;20.20;57.20;;;;;;6264851;28;19909;-70
2023/05/14 16:03:11;;;;;;;;;;;20.20;57.20;;;;;;6243195;28;19909;-73
2023/05/14 16:06:12;;;;;;;;;;;20.20;57.20;;;;;;6228721;28;20028;-73
2023/05/14 16:09:12;;;;;;;;;;;20.20;57.20;;;;;;6242356;28;19916;-73
2023/05/14 16:12:13;;;;;;;;;;;20.20;57.20;;;;;;6251364;28;19945;-70
2023/05/14 16:15:13;;;;;;;;;;;20.20;57.20;;;;;;6266631;28;20381;-71
2023/05/14 16:18:14;;;;;;;;;;;20.20;57.20;;;;;;6262723;28;20008;-71
2023/05/14 16:21:14;;;;;;;;;;;20.20;57.20;;;;;;6266731;28;19916;-71
2023/05/14 16:24:18;;;;;;;;;;;20.20;57.20;;;;;;6254111;28;20363;-71
2023/05/14 16:27:19;;;;;;;;;;;20.20;57.20;;;;;;6265585;28;19971;-71
2023/05/14 16:30:19;;;;;;;;;;;20.20;57.20;;;;;;6253782;28;19909;-70
2023/05/14 16:33:20;;;;;;;;;;;20.20;57.20;;;;;;6245280;28;19909;-71
2023/05/14 16:36:20;;;;;;;;;;;20.20;57.20;;;;;;6248283;28;19917;-71
2023/05/14 16:39:21;;;;;;;;;;;20.20;57.20;;;;;;6270810;28;19955;-71
2023/05/14 16:42:21;;;;;;;;;;;20.20;57.20;;;;;;6255674;28;19956;-70
2023/05/14 16:45:22;;;;;;;;;;;20.20;57.30;;;;;;6246402;28;19916;-71
2023/05/14 16:48:22;;;;;;;;;;;20.20;57.30;;;;;;6255691;28;19939;-71
2023/05/14 16:51:23;;;;;;;;;;;20.20;57.20;;;;;;6264470;28;19929;-71
2023/05/14 16:54:23;;;;;;;;;;;20.20;57.30;;;;;;6269773;28;19999;-71
2023/05/14 16:57:25;;;;;;;;;;;20.20;57.30;;;;;;6262235;28;19970;-71
2023/05/14 17:00:25;;;;;;;;;;;20.20;57.30;;;;;;6249292;28;19913;-73
2023/05/14 17:03:26;;;;;;;;;;;20.20;57.20;;;;;;6242827;28;19917;-73
2023/05/14 17:06:26;;;;;;;;;;;20.20;57.20;;;;;;6264595;28;20375;-73
2023/05/14 17:09:27;;;;;;;;;;;20.20;57.20;;;;;;6264299;28;19909;-71
2023/05/14 17:12:27;;;;;;;;;;;20.20;58.00;;;;;;6245060;28;20029;-71
2023/05/14 17:15:28;;;;;;;;;;;20.20;57.20;;;;;;6262377;28;19909;-71
2023/05/14 17:18:28;;;;;;;;;;;20.20;57.20;;;;;;6248453;28;19916;-71
2023/05/14 17:21:29;;;;;;;;;;;20.20;57.30;;;;;;6228382;28;20012;-74
2023/05/14 17:24:30;;;;;;;;;;;20.20;57.30;;;;;;6252653;28;19910;-74
2023/05/14 17:27:32;;;;;;;;;;;20.20;57.30;;;;;;6249750;28;20374;-73
2023/05/14 17:30:32;;;;;;;;;;;20.20;57.20;;;;;;6260360;28;19917;-73
2023/05/14 17:33:33;;;;;;;;;;;20.20;57.30;;;;;;6258422;28;19956;-73